Terminal Aerodrome Forecast
Issued by NWS

Home | Current Version | Previous Version | Graphics & Text | Print | Product List | Glossary On
Versions: 1 2 3 4 5 6 7 8 9 10 11 12 13 14 15 16 17 18 19
847
FTUS43 KMPX 040540
TAFRNH
TAF
KRNH 040540Z 0406/0506 00000KT P6SM FEW300
     FM040900 19003KT P6SM OVC060
     FM041400 18004KT 3SM -SN BR OVC020
      TEMPO 0415/0418 3/4SM -SN BR OVC006
     FM041900 27006KT P6SM OVC020
     FM050100 29004KT P6SM SCT025=

USA.gov is the U.S. government's official web portal to all federal, state and local government web resources and services.